Austinville, Virginia
Current Conditions -  °F | °C
As of 7:15 PM on Saturday 25 Oct 2014 (Local Time) from KHLX Reporting Station
Broken Clouds Broken Clouds  
Wind Chill: 58°   Ceiling: 3500
Heat Index: 58°   Visibility: 10mi
Dew Point: 46°   Wind: 6mph
Humidity: 62%   Direction: 240°WSW
Pressure: 29.98"   Gusts: NA
Location:  36.85°N, 80.91°W
Report Text: KHLX 252315Z AUTO 24005KT 10SM BKN035 15/08 A2998 RMK AO2 T01460075
Loading
Personal Weather Stations






























Interactive Weather Map
Tropical Storm Tracking
New forecast layout! Learn more

10-Day Weather Forecast

Advertisements
Track Severe Weather on mobile